createdAt,value
2019-05-23T00:02:15.690Z,99.90
2019-05-23T00:04:50.343Z,99.90
2019-05-23T00:07:20.834Z,99.90
2019-05-23T00:09:51.366Z,99.90
2019-05-23T00:12:45.638Z,99.90
2019-05-23T00:15:22.835Z,99.90
2019-05-23T00:17:51.746Z,99.90
2019-05-23T00:20:20.981Z,99.90
2019-05-23T00:22:51.222Z,99.90
2019-05-23T00:25:20.156Z,99.90
2019-05-23T00:27:49.699Z,99.90
2019-05-23T00:30:25.898Z,99.90
2019-05-23T00:32:57.585Z,99.90
2019-05-23T00:35:28.244Z,99.90
2019-05-23T00:37:57.207Z,99.90
2019-05-23T00:40:28.043Z,99.90
2019-05-23T00:42:56.929Z,99.90
2019-05-23T00:45:26.866Z,99.90
2019-05-23T00:47:57.055Z,99.90
2019-05-23T00:50:27.584Z,99.90
2019-05-23T00:52:57.924Z,99.90
2019-05-23T00:55:28.344Z,99.90
2019-05-23T00:57:58.539Z,99.90
2019-05-23T01:00:29.699Z,99.90
2019-05-23T01:02:59.121Z,99.90
2019-05-23T01:05:29.656Z,99.90
2019-05-23T01:07:59.619Z,99.90
2019-05-23T01:10:29.154Z,99.90
2019-05-23T01:12:58.034Z,99.90
2019-05-23T01:15:27.042Z,99.90
2019-05-23T01:17:56.331Z,99.90
2019-05-23T01:20:31.560Z,99.90
2019-05-23T01:23:03.906Z,99.90
2019-05-23T01:25:34.823Z,99.90
2019-05-23T01:28:04.326Z,99.90
2019-05-23T01:30:40.416Z,99.90
2019-05-23T01:33:10.171Z,99.90
2019-05-23T01:35:41.582Z,99.90
2019-05-23T01:38:12.254Z,99.90
2019-05-23T01:40:41.485Z,99.90
2019-05-23T01:43:12.066Z,99.90
2019-05-23T01:45:41.827Z,99.90
2019-05-23T01:48:11.720Z,99.90
2019-05-23T01:50:41.176Z,99.90
2019-05-23T01:53:11.506Z,99.90
2019-05-23T01:55:43.687Z,99.90
2019-05-23T01:58:13.434Z,99.90
2019-05-23T02:00:43.111Z,99.90
2019-05-23T02:03:12.647Z,99.90
2019-05-23T02:05:42.359Z,99.90
2019-05-23T02:08:13.629Z,99.90
2019-05-23T02:10:44.249Z,99.90
2019-05-23T02:13:13.672Z,99.90
2019-05-23T02:15:44.090Z,99.90
2019-05-23T02:18:13.779Z,99.90
2019-05-23T02:20:42.595Z,99.90
2019-05-23T02:23:12.165Z,99.90
2019-05-23T02:25:42.912Z,99.90
2019-05-23T02:28:12.701Z,99.90
2019-05-23T02:30:42.327Z,99.90
2019-05-23T02:33:12.275Z,99.90
2019-05-23T02:35:41.066Z,99.90
2019-05-23T02:38:28.579Z,99.90
2019-05-23T02:41:05.556Z,99.90
2019-05-23T02:43:35.998Z,99.90
2019-05-23T02:46:08.292Z,99.90
2019-05-23T02:48:41.366Z,99.90
2019-05-23T02:51:16.409Z,99.90
2019-05-23T02:53:48.137Z,99.90
2019-05-23T02:56:18.894Z,99.90
2019-05-23T02:59:10.746Z,99.90
2019-05-23T03:02:01.102Z,99.90
2019-05-23T03:04:31.196Z,99.90
2019-05-23T03:07:03.396Z,99.90
2019-05-23T03:09:34.082Z,99.90
2019-05-23T03:12:04.104Z,99.90
2019-05-23T03:14:35.654Z,99.90
2019-05-23T03:17:06.355Z,99.90
2019-05-23T03:19:51.585Z,99.90
2019-05-23T03:22:39.995Z,99.90
2019-05-23T03:26:01.695Z,99.90
2019-05-23T03:28:36.945Z,99.90
2019-05-23T03:31:28.554Z,99.90
2019-05-23T03:33:41.235Z,99.90
2019-05-23T03:36:10.741Z,99.90
2019-05-23T03:38:39.746Z,99.90
2019-05-23T03:41:08.532Z,99.90
2019-05-23T03:43:37.326Z,99.90
2019-05-23T03:46:08.953Z,99.90
2019-05-23T03:48:40.622Z,99.90
2019-05-23T03:51:09.880Z,99.90
2019-05-23T03:53:39.622Z,99.90
2019-05-23T03:56:11.274Z,99.90
2019-05-23T03:58:41.498Z,99.90
2019-05-23T04:01:12.441Z,99.90
2019-05-23T04:03:42.700Z,99.90
2019-05-23T04:06:12.652Z,99.90
2019-05-23T04:08:41.904Z,99.90
2019-05-23T04:11:11.623Z,99.90
2019-05-23T04:13:40.499Z,99.90
2019-05-23T04:16:11.035Z,99.90
2019-05-23T04:18:39.921Z,99.90
2019-05-23T04:21:09.149Z,99.90
2019-05-23T04:23:38.121Z,99.90
2019-05-23T04:26:07.278Z,99.90
2019-05-23T04:28:36.136Z,99.90
2019-05-23T04:31:05.112Z,99.90
2019-05-23T04:33:34.697Z,99.90
2019-05-23T04:36:04.396Z,99.90
2019-05-23T04:38:36.140Z,99.90
2019-05-23T04:41:03.798Z,99.90
2019-05-23T04:43:32.602Z,99.90
2019-05-23T04:46:01.862Z,99.90
2019-05-23T04:48:31.026Z,99.90
2019-05-23T04:51:00.740Z,99.90
2019-05-23T04:53:30.492Z,99.90
2019-05-23T04:56:00.626Z,99.90
2019-05-23T04:58:29.681Z,99.90
2019-05-23T05:00:59.922Z,99.90
2019-05-23T05:03:30.260Z,99.90
2019-05-23T05:06:00.536Z,99.90
2019-05-23T05:08:29.834Z,99.90
2019-05-23T05:10:58.804Z,99.90
2019-05-23T05:13:27.734Z,99.90
2019-05-23T05:15:57.096Z,99.90
2019-05-23T05:18:25.915Z,99.90
2019-05-23T05:20:54.773Z,99.90
2019-05-23T05:23:23.670Z,99.90
2019-05-23T05:25:52.918Z,99.90
2019-05-23T05:28:21.794Z,99.90
2019-05-23T05:30:50.742Z,99.90
2019-05-23T05:33:19.724Z,99.90
2019-05-23T05:35:49.069Z,99.90
2019-05-23T05:38:18.242Z,99.90
2019-05-23T05:40:47.113Z,99.90
2019-05-23T05:43:17.021Z,99.90
2019-05-23T05:45:45.905Z,99.90
2019-05-23T05:48:14.761Z,99.90
2019-05-23T05:50:44.666Z,99.90
2019-05-23T05:53:13.730Z,99.90
2019-05-23T05:55:42.567Z,99.90
2019-05-23T05:58:11.473Z,99.90
2019-05-23T06:00:51.984Z,99.90
2019-05-23T06:03:20.798Z,99.90
2019-05-23T06:05:59.436Z,99.90
2019-05-23T06:08:28.851Z,99.90
2019-05-23T06:10:58.403Z,99.90
2019-05-23T06:13:27.237Z,99.90
2019-05-23T06:15:56.374Z,99.90
2019-05-23T06:18:25.328Z,99.90
2019-05-23T06:20:55.516Z,99.90
2019-05-23T06:23:24.361Z,99.90
2019-05-23T06:25:53.296Z,99.90
2019-05-23T06:28:24.402Z,99.90
2019-05-23T06:30:54.535Z,99.90
2019-05-23T06:33:24.623Z,99.90
2019-05-23T06:35:54.179Z,99.90
2019-05-23T06:38:23.197Z,99.90
2019-05-23T06:40:53.530Z,99.90
2019-05-23T06:43:22.491Z,99.90
2019-05-23T06:45:51.749Z,99.90
2019-05-23T06:48:21.893Z,99.90
2019-05-23T06:50:50.720Z,99.90
2019-05-23T06:53:19.892Z,99.90
2019-05-23T06:55:48.793Z,99.90
2019-05-23T06:58:17.715Z,99.90
2019-05-23T07:00:47.531Z,99.90
2019-05-23T07:03:16.658Z,99.90
2019-05-23T07:05:46.008Z,99.90
2019-05-23T07:08:14.873Z,99.90
2019-05-23T07:10:44.776Z,99.90
2019-05-23T07:13:14.249Z,99.90
2019-05-23T07:15:43.762Z,99.90
2019-05-23T07:18:12.804Z,99.90
2019-05-23T07:20:41.857Z,99.90
2019-05-23T07:23:13.198Z,99.90
2019-05-23T07:25:42.053Z,99.90
2019-05-23T07:28:11.251Z,99.90
2019-05-23T07:30:40.160Z,99.90
2019-05-23T07:33:09.479Z,99.90
2019-05-23T07:35:38.341Z,99.90
2019-05-23T07:38:07.492Z,99.90
2019-05-23T07:40:36.365Z,99.90
2019-05-23T07:43:06.647Z,99.90
2019-05-23T07:45:41.446Z,99.90
2019-05-23T07:48:10.402Z,99.90
2019-05-23T07:50:39.227Z,99.90
2019-05-23T07:53:09.590Z,99.90
2019-05-23T07:55:41.524Z,99.90
2019-05-23T07:58:13.545Z,99.90
2019-05-23T08:00:48.213Z,99.90
2019-05-23T08:03:17.689Z,99.90
2019-05-23T08:05:47.441Z,99.90
2019-05-23T08:08:17.169Z,99.90
2019-05-23T08:10:46.576Z,99.90
2019-05-23T08:13:16.108Z,99.90
2019-05-23T08:15:46.891Z,99.90
2019-05-23T08:18:17.668Z,99.90
2019-05-23T08:20:46.963Z,99.90
2019-05-23T08:23:17.388Z,99.90
2019-05-23T08:25:46.237Z,99.90
2019-05-23T08:28:15.383Z,99.90
2019-05-23T08:30:45.720Z,99.90
2019-05-23T08:33:15.654Z,99.90
2019-05-23T08:35:46.334Z,99.90
2019-05-23T08:38:15.950Z,99.90
2019-05-23T08:40:46.972Z,99.90
2019-05-23T08:43:16.034Z,99.90
2019-05-23T08:45:45.211Z,99.90
2019-05-23T08:48:14.059Z,99.90
2019-05-23T08:50:42.866Z,99.90
2019-05-23T08:53:11.634Z,99.90
2019-05-23T08:55:41.085Z,99.90
2019-05-23T08:58:13.542Z,99.90
2019-05-23T09:00:46.690Z,99.90
2019-05-23T09:03:17.006Z,99.90
2019-05-23T09:05:50.880Z,99.90
2019-05-23T09:08:20.169Z,99.90
2019-05-23T09:10:50.939Z,99.90
2019-05-23T09:13:24.697Z,99.90
2019-05-23T09:15:53.971Z,99.90
2019-05-23T09:18:28.089Z,99.90
2019-05-23T09:20:59.243Z,99.90
2019-05-23T09:23:29.747Z,99.90
2019-05-23T09:26:04.638Z,99.90
2019-05-23T09:31:51.699Z,99.90
2019-05-23T09:34:21.721Z,99.90
2019-05-23T09:36:50.580Z,99.90
2019-05-23T09:39:21.043Z,99.90
2019-05-23T09:41:50.860Z,99.90
2019-05-23T09:44:21.100Z,99.90
2019-05-23T09:46:54.846Z,99.90
2019-05-23T09:49:25.098Z,99.90
2019-05-23T09:52:00.838Z,99.90
2019-05-23T09:54:27.244Z,99.90
2019-05-23T09:57:06.908Z,99.90
2019-05-23T09:59:36.968Z,99.90
2019-05-23T10:02:11.876Z,99.90
2019-05-23T10:04:41.865Z,99.90
2019-05-23T10:07:14.635Z,99.90
2019-05-23T10:09:43.665Z,99.90
2019-05-23T10:12:12.495Z,99.90
2019-05-23T10:14:41.607Z,99.90
2019-05-23T10:17:14.883Z,99.90
2019-05-23T10:19:44.125Z,99.90
2019-05-23T10:22:15.430Z,99.90
2019-05-23T10:24:44.579Z,99.90
2019-05-23T10:27:16.106Z,99.90
2019-05-23T10:29:47.530Z,99.90
2019-05-23T10:32:17.689Z,99.90
2019-05-23T10:34:46.530Z,99.90
2019-05-23T10:37:16.257Z,99.90
2019-05-23T10:39:49.222Z,99.90
2019-05-23T10:42:18.250Z,99.90
2019-05-23T10:44:47.151Z,99.90
2019-05-23T10:47:16.056Z,99.90
2019-05-23T10:49:45.399Z,99.90
2019-05-23T10:52:14.331Z,99.90
2019-05-23T10:54:43.156Z,99.90
2019-05-23T10:57:12.456Z,99.90
2019-05-23T10:59:41.233Z,99.90
2019-05-23T11:02:12.455Z,99.90
2019-05-23T11:04:41.254Z,99.90
2019-05-23T11:07:11.456Z,99.90
2019-05-23T11:09:43.291Z,99.90
2019-05-23T11:12:12.761Z,99.90
2019-05-23T11:14:41.898Z,99.90
2019-05-23T11:17:11.325Z,99.90
2019-05-23T11:19:40.687Z,99.90
2019-05-23T11:22:11.018Z,99.90
2019-05-23T11:24:40.418Z,99.90
2019-05-23T11:27:09.665Z,99.90
2019-05-23T11:29:41.990Z,98.80
2019-05-23T11:32:12.646Z,99.30
2019-05-23T11:34:41.573Z,98.40
2019-05-23T11:37:12.127Z,97.20
2019-05-23T11:39:49.376Z,96.60
2019-05-23T11:42:13.106Z,96.10
2019-05-23T11:44:47.397Z,96.30
2019-05-23T11:47:16.838Z,96.30
2019-05-23T11:49:46.376Z,96.10
2019-05-23T11:52:16.490Z,96.50
2019-05-23T11:54:45.732Z,96.30
2019-05-23T11:57:15.462Z,94.80
2019-05-23T11:59:44.759Z,94.20
2019-05-23T12:02:19.889Z,90.40
2019-05-23T12:04:48.997Z,90.80
2019-05-23T12:07:22.707Z,91.30
2019-05-23T12:09:52.015Z,91.50
2019-05-23T12:12:21.353Z,91.30
2019-05-23T12:14:50.415Z,90.80
2019-05-23T12:17:20.712Z,90.70
2019-05-23T12:19:49.534Z,90.70
2019-05-23T12:22:18.735Z,90.60
2019-05-23T12:24:47.807Z,90.00
2019-05-23T12:27:19.021Z,86.00
2019-05-23T12:29:48.252Z,84.30
2019-05-23T12:32:24.173Z,84.80
2019-05-23T12:35:09.330Z,85.40
2019-05-23T12:37:24.141Z,81.80
2019-05-23T12:39:53.286Z,83.10
2019-05-23T12:42:22.116Z,81.10
2019-05-23T12:44:50.895Z,79.80
2019-05-23T12:47:30.255Z,79.90
2019-05-23T12:50:04.373Z,81.30
2019-05-23T12:52:33.498Z,83.70
2019-05-23T12:55:02.695Z,83.70
2019-05-23T12:57:32.445Z,79.50
2019-05-23T13:00:01.614Z,80.10
2019-05-23T13:02:32.081Z,80.40
2019-05-23T13:05:10.746Z,78.80
2019-05-23T13:07:41.958Z,80.20
2019-05-23T13:10:11.344Z,81.70
2019-05-23T13:12:40.620Z,81.20
2019-05-23T13:15:10.528Z,81.30
2019-05-23T13:17:39.597Z,80.80
2019-05-23T13:20:09.258Z,81.50
2019-05-23T13:22:38.258Z,82.30
2019-05-23T13:25:07.423Z,80.60
2019-05-23T13:27:36.286Z,81.10
2019-05-23T13:30:05.800Z,81.90
2019-05-23T13:32:35.620Z,81.70
2019-05-23T13:35:05.446Z,82.40
2019-05-23T13:37:34.975Z,83.40
2019-05-23T13:40:04.664Z,83.00
2019-05-23T13:42:36.222Z,82.80
2019-05-23T13:45:07.284Z,83.20
2019-05-23T13:47:36.332Z,83.60
2019-05-23T13:50:05.635Z,83.10
2019-05-23T13:52:36.000Z,84.20
2019-05-23T13:55:05.567Z,82.70
2019-05-23T13:57:36.352Z,82.10
2019-05-23T14:00:06.444Z,82.30
2019-05-23T14:02:35.359Z,82.50
2019-05-23T14:05:04.876Z,81.30
2019-05-23T14:07:33.948Z,81.60
2019-05-23T14:10:03.732Z,81.30
2019-05-23T14:12:32.658Z,79.10
2019-05-23T14:15:01.680Z,80.30
2019-05-23T14:17:38.933Z,79.30
2019-05-23T14:20:08.414Z,78.00
2019-05-23T14:22:41.410Z,76.20
2019-05-23T14:25:11.245Z,77.40
2019-05-23T14:27:46.008Z,75.70
2019-05-23T14:30:30.811Z,73.40
2019-05-23T14:33:01.604Z,74.00
2019-05-23T14:35:32.896Z,72.90
2019-05-23T14:38:03.796Z,71.50
2019-05-23T14:40:33.368Z,71.40
2019-05-23T14:43:43.627Z,69.80
2019-05-23T14:46:15.966Z,71.20
2019-05-23T14:48:57.963Z,72.50
2019-05-23T14:51:40.832Z,71.10
2019-05-23T14:54:23.193Z,69.50
2019-05-23T14:56:52.311Z,70.20
2019-05-23T14:59:22.859Z,69.80
2019-05-23T15:01:52.507Z,69.60
2019-05-23T15:04:22.211Z,68.90
2019-05-23T15:06:51.029Z,68.10
2019-05-23T15:10:23.689Z,68.70
2019-05-23T15:12:52.526Z,67.60
2019-05-23T15:15:26.693Z,64.80
2019-05-23T15:17:55.665Z,63.10
2019-05-23T15:20:24.443Z,63.80
2019-05-23T15:22:53.264Z,63.30
2019-05-23T15:25:22.395Z,63.00
2019-05-23T15:27:51.195Z,61.90
2019-05-23T15:30:20.510Z,60.80
2019-05-23T15:32:49.334Z,60.20
2019-05-23T15:35:18.278Z,59.60
2019-05-23T15:37:48.023Z,58.90
2019-05-23T15:40:17.516Z,57.20
2019-05-23T15:42:46.481Z,56.50
2019-05-23T15:45:15.392Z,56.30
2019-05-23T15:47:44.436Z,58.70
2019-05-23T15:50:15.651Z,58.90
2019-05-23T15:53:01.409Z,58.80
2019-05-23T15:56:16.780Z,58.60
2019-05-23T15:58:38.399Z,60.30
2019-05-23T16:01:15.855Z,61.10
2019-05-23T16:03:50.660Z,62.30
2019-05-23T16:06:21.623Z,64.20
2019-05-23T16:09:25.567Z,66.20
2019-05-23T16:11:39.108Z,67.50
2019-05-23T16:14:08.158Z,69.10
2019-05-23T16:17:02.532Z,70.00
2019-05-23T16:19:32.904Z,71.50
2019-05-23T16:22:08.257Z,72.70
2019-05-23T16:24:50.729Z,73.00
2019-05-23T16:28:10.372Z,72.20
2019-05-23T16:30:47.393Z,73.70
2019-05-23T16:33:22.374Z,74.70
2019-05-23T16:35:51.515Z,74.50
2019-05-23T16:38:20.565Z,74.90
2019-05-23T16:40:49.464Z,75.20
2019-05-23T16:43:18.372Z,76.10
2019-05-23T16:45:47.228Z,75.80
2019-05-23T16:48:16.037Z,76.80
2019-05-23T16:50:45.268Z,76.60
2019-05-23T16:53:14.319Z,77.60
2019-05-23T16:56:08.783Z,77.70
2019-05-23T16:59:12.046Z,78.00
2019-05-23T17:02:06.303Z,78.20
2019-05-23T17:04:39.395Z,78.90
2019-05-23T17:07:26.321Z,79.20
2019-05-23T17:10:08.979Z,79.70
2019-05-23T17:12:40.959Z,80.10
2019-05-23T17:15:26.502Z,80.80
2019-05-23T17:18:04.025Z,81.00
2019-05-23T17:20:44.174Z,81.30
2019-05-23T17:23:34.556Z,81.70
2019-05-23T17:26:14.311Z,81.90
2019-05-23T17:28:51.399Z,82.00
2019-05-23T17:31:21.956Z,82.30
2019-05-23T17:33:51.698Z,83.00
2019-05-23T17:36:21.024Z,83.30
2019-05-23T17:38:50.163Z,84.70
2019-05-23T17:41:19.588Z,85.20
2019-05-23T17:43:48.371Z,85.00
2019-05-23T17:46:17.315Z,85.20
2019-05-23T17:48:46.072Z,85.60
2019-05-23T17:51:18.465Z,86.50
2019-05-23T17:53:47.528Z,87.50
2019-05-23T17:56:22.414Z,87.90
2019-05-23T17:58:51.799Z,89.20
2019-05-23T18:01:24.128Z,87.30
2019-05-23T18:04:00.336Z,87.20
2019-05-23T18:06:29.391Z,88.50
2019-05-23T18:08:58.241Z,90.10
2019-05-23T18:11:27.301Z,90.50
2019-05-23T18:13:56.849Z,90.70
2019-05-23T18:16:28.629Z,91.00
2019-05-23T18:18:58.329Z,91.50
2019-05-23T18:21:28.501Z,92.10
2019-05-23T18:23:58.018Z,92.40
2019-05-23T18:26:29.967Z,92.70
2019-05-23T18:29:03.353Z,92.60
2019-05-23T18:31:34.615Z,93.00
2019-05-23T18:34:05.370Z,93.20
2019-05-23T18:36:35.635Z,92.90
2019-05-23T18:39:07.451Z,93.20
2019-05-23T18:41:36.407Z,93.60
2019-05-23T18:44:07.450Z,94.10
2019-05-23T18:46:41.042Z,94.30
2019-05-23T18:49:11.912Z,94.70
2019-05-23T18:51:40.883Z,95.20
2019-05-23T18:54:10.488Z,95.60
2019-05-23T18:56:39.593Z,95.90
2019-05-23T18:59:10.025Z,96.10
2019-05-23T19:01:43.134Z,96.60
2019-05-23T19:04:14.668Z,97.10
2019-05-23T19:06:48.782Z,97.80
2019-05-23T19:09:21.854Z,98.60
2019-05-23T19:11:51.930Z,99.30
2019-05-23T19:14:23.295Z,99.90
2019-05-23T19:16:52.513Z,99.90
2019-05-23T19:19:22.150Z,99.90
2019-05-23T19:21:51.929Z,99.90
2019-05-23T19:24:22.484Z,99.90
2019-05-23T19:26:54.748Z,99.90
2019-05-23T19:29:27.543Z,99.90
2019-05-23T19:31:57.695Z,99.90
2019-05-23T19:34:29.074Z,99.90
2019-05-23T19:37:00.414Z,99.90
2019-05-23T19:39:30.032Z,99.90
2019-05-23T19:41:59.259Z,99.90
2019-05-23T19:44:29.498Z,99.90
2019-05-23T19:47:00.011Z,99.90
2019-05-23T19:49:30.062Z,99.90
2019-05-23T19:52:00.797Z,99.90
2019-05-23T19:54:30.133Z,99.90
2019-05-23T19:57:01.062Z,99.90
2019-05-23T19:59:30.213Z,99.90
2019-05-23T20:02:20.016Z,99.90
2019-05-23T20:04:58.362Z,99.90
2019-05-23T20:07:27.428Z,99.90
2019-05-23T20:09:57.479Z,99.90
2019-05-23T20:12:26.671Z,99.90
2019-05-23T20:14:57.030Z,99.90
2019-05-23T20:17:26.734Z,99.90
2019-05-23T20:19:55.522Z,99.90
2019-05-23T20:22:24.288Z,99.90
2019-05-23T20:24:53.594Z,99.90
2019-05-23T20:27:24.407Z,99.90
2019-05-23T20:29:55.375Z,99.90
2019-05-23T20:32:24.259Z,99.90
2019-05-23T20:34:53.302Z,99.90
2019-05-23T20:37:24.646Z,99.90
2019-05-23T20:39:56.151Z,99.90
2019-05-23T20:42:26.880Z,99.90
2019-05-23T20:44:56.729Z,99.90
2019-05-23T20:47:25.789Z,99.90
2019-05-23T20:49:55.800Z,99.90
2019-05-23T20:52:28.117Z,99.90
2019-05-23T20:55:00.423Z,99.90
2019-05-23T20:57:29.931Z,99.90
2019-05-23T20:59:59.282Z,99.90
2019-05-23T21:02:31.342Z,99.90
2019-05-23T21:05:00.833Z,99.90
2019-05-23T21:07:41.944Z,99.90
2019-05-23T21:10:13.924Z,99.90
2019-05-23T21:12:44.917Z,99.90
2019-05-23T21:15:13.849Z,99.90
2019-05-23T21:17:42.635Z,99.90
2019-05-23T21:20:17.275Z,99.90
2019-05-23T21:22:46.750Z,99.90
2019-05-23T21:25:16.064Z,99.90
2019-05-23T21:27:46.127Z,99.90
2019-05-23T21:30:15.190Z,99.90
2019-05-23T21:32:44.113Z,99.90
2019-05-23T21:35:18.513Z,99.90
2019-05-23T21:37:52.265Z,99.90
2019-05-23T21:40:40.595Z,99.90
2019-05-23T21:43:10.386Z,99.90
2019-05-23T21:45:41.970Z,99.90
2019-05-23T21:48:11.613Z,99.90
2019-05-23T21:50:44.136Z,99.90
2019-05-23T21:53:16.213Z,99.90
2019-05-23T21:55:47.298Z,99.90
2019-05-23T21:58:17.907Z,99.90
2019-05-23T22:01:35.190Z,99.90
2019-05-23T22:04:19.536Z,99.90
2019-05-23T22:06:55.718Z,99.90
2019-05-23T22:09:26.282Z,99.90
2019-05-23T22:11:56.120Z,99.90
2019-05-23T22:14:25.576Z,99.90
2019-05-23T22:16:54.718Z,99.90
2019-05-23T22:19:27.837Z,99.90
2019-05-23T22:21:57.045Z,99.90
2019-05-23T22:24:26.010Z,99.90
2019-05-23T22:26:57.099Z,99.90
2019-05-23T22:29:26.668Z,99.90
2019-05-23T22:31:56.530Z,99.90
2019-05-23T22:34:38.880Z,99.90
2019-05-23T22:37:16.154Z,99.90
2019-05-23T22:39:45.978Z,99.90
2019-05-23T22:42:18.842Z,99.90
2019-05-23T22:44:51.381Z,99.90
2019-05-23T22:47:20.814Z,99.90
2019-05-23T22:49:51.060Z,99.90
2019-05-23T22:52:20.815Z,99.90
2019-05-23T22:54:49.598Z,99.90
2019-05-23T22:57:18.872Z,99.90
2019-05-23T22:59:47.798Z,99.90
2019-05-23T23:02:18.636Z,99.90
2019-05-23T23:04:47.414Z,99.90
2019-05-23T23:07:16.652Z,99.90
2019-05-23T23:09:46.042Z,99.90
2019-05-23T23:12:14.880Z,99.90
2019-05-23T23:14:44.065Z,99.90
2019-05-23T23:17:15.242Z,99.90
2019-05-23T23:19:44.675Z,99.90
2019-05-23T23:22:14.795Z,99.90
2019-05-23T23:24:46.443Z,99.90
2019-05-23T23:27:16.983Z,99.90
2019-05-23T23:29:45.810Z,99.90
2019-05-23T23:32:15.225Z,99.90
2019-05-23T23:34:44.178Z,99.90
2019-05-23T23:37:13.053Z,99.90
2019-05-23T23:39:41.879Z,99.90
2019-05-23T23:42:10.908Z,99.90
2019-05-23T23:44:38.873Z,99.90
2019-05-23T23:47:25.777Z,99.90
2019-05-23T23:50:12.739Z,99.90
2019-05-23T23:52:59.423Z,99.90
2019-05-23T23:55:45.706Z,99.90
2019-05-23T23:58:13.718Z,99.90
